Time;durP1;ratioP1;P1;durP2;ratioP2;P2;SDS_P1;SDS_P2;PMS_P1;PMS_P2;Temp;Humidity;BMP_temperature;BMP_pressure;BME280_temperature;BME280_humidity;BME280_pressure;Samples;Min_cycle;Max_cycle;Signal;HPM_P1;HPM_P2
2021/12/15 00:00:39;;;;;;;105.90;32.83;;;10.60;99.90;;;;;;5061260;28;20263;-78
2021/12/15 00:03:07;;;;;;;107.33;32.93;;;10.60;99.90;;;;;;5062472;28;20242;-78
2021/12/15 00:05:34;;;;;;;98.60;31.43;;;10.50;99.90;;;;;;5071843;28;20220;-77
2021/12/15 00:08:07;;;;;;;94.93;32.27;;;10.50;99.90;;;;;;5071836;28;20232;-77
2021/12/15 00:10:35;;;;;;;94.70;30.90;;;10.50;99.90;;;;;;5055377;28;20219;-79
2021/12/15 00:13:02;;;;;;;99.07;33.10;;;10.50;99.90;;;;;;5072141;28;20556;-78
2021/12/15 00:15:29;;;;;;;98.27;31.73;;;10.60;99.90;;;;;;5072498;28;20234;-77
2021/12/15 00:17:58;;;;;;;95.07;31.73;;;10.50;99.90;;;;;;5071555;28;20270;-77
2021/12/15 00:20:26;;;;;;;104.60;31.47;;;10.50;99.90;;;;;;5066804;28;20194;-78
2021/12/15 00:22:54;;;;;;;87.97;30.03;;;10.50;99.90;;;;;;5066413;28;20271;-77
2021/12/15 00:25:24;;;;;;;90.90;30.13;;;10.50;99.90;;;;;;5070418;28;20305;-78
2021/12/15 00:27:51;;;;;;;84.47;29.53;;;10.60;99.90;;;;;;5071187;28;20637;-77
2021/12/15 00:30:19;;;;;;;87.60;27.87;;;10.50;99.90;;;;;;5071302;28;20280;-78
2021/12/15 00:32:49;;;;;;;81.23;29.37;;;10.50;99.90;;;;;;5071743;28;20219;-77
2021/12/15 00:35:17;;;;;;;86.90;28.10;;;10.50;99.90;;;;;;5071347;28;20299;-78
2021/12/15 00:37:43;;;;;;;83.17;27.87;;;10.50;99.90;;;;;;5071455;28;20664;-78
2021/12/15 00:40:14;;;;;;;86.87;28.73;;;10.50;99.90;;;;;;5071322;28;20626;-79
2021/12/15 00:42:41;;;;;;;82.17;28.33;;;10.50;99.90;;;;;;5071257;28;20228;-79
2021/12/15 00:45:09;;;;;;;84.40;28.13;;;10.50;99.90;;;;;;5072419;28;20623;-77
2021/12/15 00:47:36;;;;;;;83.07;30.47;;;10.50;99.90;;;;;;5072290;28;20761;-78
2021/12/15 00:50:07;;;;;;;89.43;28.60;;;10.40;99.90;;;;;;5072672;28;20251;-79
2021/12/15 00:52:37;;;;;;;84.83;27.67;;;10.40;99.90;;;;;;5075372;28;20235;-78
2021/12/15 00:55:08;;;;;;;78.63;28.20;;;10.50;99.90;;;;;;5076895;28;20275;-78
2021/12/15 00:57:35;;;;;;;90.43;29.07;;;10.40;99.90;;;;;;5071456;28;20235;-79
2021/12/15 01:00:05;;;;;;;84.23;28.43;;;10.40;99.90;;;;;;5054696;28;20264;-78
2021/12/15 01:02:33;;;;;;;89.60;29.00;;;10.40;99.90;;;;;;5066350;28;20241;-78
2021/12/15 01:05:01;;;;;;;84.83;28.43;;;10.40;99.90;;;;;;5052972;28;20254;-78
2021/12/15 01:07:31;;;;;;;86.83;28.57;;;10.40;99.90;;;;;;5071401;28;20295;-76
2021/12/15 01:09:59;;;;;;;81.37;29.17;;;10.50;99.90;;;;;;5069948;28;20267;-78
2021/12/15 01:14:27;;;;;;;84.13;28.60;;;10.40;99.90;;;;;;5070137;28;20224;-78
2021/12/15 01:21:06;;;;;;;91.73;30.33;;;10.40;99.90;;;;;;5064447;28;20291;-79
2021/12/15 01:23:33;;;;;;;82.07;28.80;;;10.40;99.90;;;;;;5070952;28;20256;-77
2021/12/15 01:26:04;;;;;;;88.53;30.37;;;10.40;99.90;;;;;;5070320;28;20624;-77
2021/12/15 01:28:31;;;;;;;92.40;30.87;;;10.30;99.90;;;;;;5070919;28;20307;-77
2021/12/15 01:30:59;;;;;;;88.37;30.87;;;10.40;99.90;;;;;;5070959;28;20196;-78
2021/12/15 01:33:27;;;;;;;84.27;30.00;;;10.40;99.90;;;;;;5070220;28;20734;-79
2021/12/15 01:35:57;;;;;;;88.00;30.00;;;10.40;99.90;;;;;;5069973;28;20217;-78
2021/12/15 01:38:28;;;;;;;88.60;29.83;;;10.40;99.90;;;;;;5070760;28;20196;-78
2021/12/15 01:40:56;;;;;;;90.57;30.40;;;10.40;99.90;;;;;;5066253;28;20288;-78
2021/12/15 01:43:38;;;;;;;93.53;31.00;;;10.40;99.90;;;;;;5070148;28;20246;-78
2021/12/15 01:49:09;;;;;;;91.70;30.60;;;10.40;99.90;;;;;;5069937;28;20303;-77
2021/12/15 01:51:36;;;;;;;102.23;34.77;;;10.40;99.90;;;;;;5055748;28;20204;-78
2021/12/15 01:54:04;;;;;;;102.30;33.10;;;10.40;99.90;;;;;;5069506;28;20215;-78
2021/12/15 01:56:31;;;;;;;108.23;34.47;;;10.40;99.90;;;;;;5069860;28;20286;-78
2021/12/15 01:58:58;;;;;;;102.13;34.63;;;10.40;99.90;;;;;;5070246;28;20254;-79
2021/12/15 02:01:26;;;;;;;106.37;34.30;;;10.50;99.90;;;;;;5069562;28;20303;-79
2021/12/15 02:03:53;;;;;;;110.20;37.77;;;10.40;99.90;;;;;;5070702;28;20614;-78
2021/12/15 02:06:41;;;;;;;113.60;37.73;;;10.50;99.90;;;;;;5069860;28;20246;-78
2021/12/15 02:09:08;;;;;;;118.40;37.57;;;10.40;99.90;;;;;;5066666;28;20228;-78
2021/12/15 02:11:35;;;;;;;121.37;37.27;;;10.40;99.90;;;;;;5046881;28;20641;-78
2021/12/15 02:14:02;;;;;;;118.37;38.00;;;10.40;99.90;;;;;;5068784;28;20201;-78
2021/12/15 02:16:31;;;;;;;115.53;38.43;;;10.40;99.90;;;;;;5069709;28;20673;-77
2021/12/15 02:18:58;;;;;;;109.80;35.83;;;10.40;99.90;;;;;;5062095;28;20235;-79
2021/12/15 02:21:25;;;;;;;108.63;37.70;;;10.30;99.90;;;;;;5069844;28;20594;-78
2021/12/15 02:23:57;;;;;;;119.97;39.10;;;10.30;99.90;;;;;;5068884;28;20239;-78
2021/12/15 02:26:35;;;;;;;115.40;39.30;;;10.40;99.90;;;;;;5069558;28;20205;-78
2021/12/15 02:29:13;;;;;;;118.10;39.03;;;10.30;99.90;;;;;;5069998;28;20212;-78
2021/12/15 02:32:37;;;;;;;120.07;39.43;;;10.30;99.90;;;;;;5054296;28;20699;-78
2021/12/15 02:39:32;;;;;;;126.13;42.03;;;10.40;99.90;;;;;;5076970;28;20208;-77
2021/12/15 02:41:59;;;;;;;134.50;40.90;;;10.30;99.90;;;;;;5080686;28;20204;-78
2021/12/15 02:44:27;;;;;;;136.43;43.70;;;10.30;99.90;;;;;;5061740;28;20224;-79
2021/12/15 02:46:54;;;;;;;131.60;42.67;;;10.40;99.90;;;;;;5079544;28;20846;-80
2021/12/15 02:49:27;;;;;;;132.57;43.43;;;10.40;99.90;;;;;;5073469;28;20208;-77
2021/12/15 02:51:58;;;;;;;132.73;42.20;;;10.40;99.90;;;;;;5076790;28;20219;-78
2021/12/15 02:54:25;;;;;;;127.37;41.03;;;10.40;99.90;;;;;;5076680;28;20201;-79
2021/12/15 02:56:53;;;;;;;131.07;42.47;;;10.30;99.90;;;;;;5075386;28;20297;-78
2021/12/15 02:59:26;;;;;;;136.13;44.03;;;10.30;99.90;;;;;;5052296;28;20274;-78
2021/12/15 03:06:59;;;;;;;138.00;42.53;;;10.30;99.90;;;;;;5069212;28;20288;-79
2021/12/15 03:15:29;;;;;;;138.77;42.93;;;10.30;99.90;;;;;;5064421;28;20287;-78
2021/12/15 03:18:12;;;;;;;142.97;45.30;;;10.30;99.90;;;;;;5066768;28;20220;-78
2021/12/15 03:20:48;;;;;;;146.23;42.90;;;10.20;99.90;;;;;;5067754;28;20637;-79
2021/12/15 03:23:42;;;;;;;138.37;44.23;;;10.30;99.90;;;;;;5067307;28;20318;-79
2021/12/15 03:26:21;;;;;;;153.17;44.07;;;10.30;99.90;;;;;;5063685;28;20201;-79
2021/12/15 03:34:50;;;;;;;136.23;43.27;;;10.30;99.90;;;;;;5062660;28;20633;-80
2021/12/15 03:39:48;;;;;;;127.33;42.47;;;10.30;99.90;;;;;;5056486;28;20222;-79
2021/12/15 03:42:20;;;;;;;130.90;42.30;;;10.30;99.90;;;;;;5050571;28;20208;-79
2021/12/15 03:44:48;;;;;;;137.43;43.07;;;10.40;99.90;;;;;;5073816;28;20246;-79
2021/12/15 03:47:22;;;;;;;139.87;42.20;;;10.30;99.90;;;;;;5055635;28;20224;-79
2021/12/15 03:49:51;;;;;;;139.60;44.73;;;10.30;99.90;;;;;;5069599;28;20199;-80
2021/12/15 03:52:18;;;;;;;144.97;44.07;;;10.30;99.90;;;;;;5066165;28;20643;-80
2021/12/15 03:54:47;;;;;;;131.23;44.17;;;10.30;99.90;;;;;;5067129;28;20292;-80
2021/12/15 03:57:15;;;;;;;141.47;41.97;;;10.30;99.90;;;;;;5064672;28;20305;-79
2021/12/15 03:59:44;;;;;;;136.53;43.80;;;10.30;99.90;;;;;;5063065;28;20208;-80
2021/12/15 04:02:13;;;;;;;129.63;40.90;;;10.30;99.90;;;;;;5057729;28;20307;-78
2021/12/15 04:04:41;;;;;;;134.37;42.10;;;10.30;99.90;;;;;;5074324;28;20572;-79
2021/12/15 04:07:09;;;;;;;138.47;45.60;;;10.30;99.90;;;;;;5071159;28;20247;-80
2021/12/15 04:09:36;;;;;;;139.37;43.00;;;10.20;99.90;;;;;;5075602;28;20212;-79
2021/12/15 04:12:04;;;;;;;138.93;43.63;;;10.20;99.90;;;;;;5071123;28;20201;-80
2021/12/15 04:14:44;;;;;;;141.07;43.13;;;10.30;99.90;;;;;;5077845;28;20204;-79
2021/12/15 04:17:34;;;;;;;137.30;42.27;;;10.20;99.90;;;;;;5072856;28;20218;-80
2021/12/15 04:20:08;;;;;;;135.37;41.83;;;10.20;99.90;;;;;;5070952;28;20657;-79
2021/12/15 04:22:36;;;;;;;134.80;42.83;;;10.20;99.90;;;;;;5071017;28;20204;-80
2021/12/15 04:25:10;;;;;;;127.90;41.20;;;10.20;99.90;;;;;;5070633;28;20209;-80
2021/12/15 04:27:38;;;;;;;130.97;41.93;;;10.30;99.90;;;;;;5060672;28;20324;-79
2021/12/15 04:30:08;;;;;;;125.53;41.77;;;10.20;99.90;;;;;;5052121;28;20280;-80
2021/12/15 04:32:42;;;;;;;136.93;42.07;;;10.30;99.90;;;;;;5059199;28;20216;-80
2021/12/15 04:35:10;;;;;;;137.10;42.37;;;10.30;99.90;;;;;;5065173;28;20208;-81
2021/12/15 04:37:37;;;;;;;127.33;42.27;;;10.20;99.90;;;;;;5070149;28;20213;-80
2021/12/15 04:40:07;;;;;;;132.90;42.50;;;10.30;99.90;;;;;;5072647;28;20291;-80
2021/12/15 04:42:37;;;;;;;136.90;41.73;;;10.30;99.90;;;;;;5071764;28;20212;-80
2021/12/15 04:45:06;;;;;;;118.77;38.67;;;10.30;99.90;;;;;;5055466;28;20301;-81
2021/12/15 04:47:33;;;;;;;124.87;40.47;;;10.30;99.90;;;;;;5049821;28;20219;-80
2021/12/15 04:50:00;;;;;;;135.17;42.87;;;10.40;99.90;;;;;;5068907;28;20306;-81
2021/12/15 04:52:29;;;;;;;126.43;41.33;;;10.30;99.90;;;;;;5069312;28;20197;-79
2021/12/15 04:54:58;;;;;;;133.97;44.43;;;10.30;99.90;;;;;;5071647;28;20240;-80
2021/12/15 04:57:26;;;;;;;125.47;40.70;;;10.30;99.90;;;;;;5089784;28;20699;-81
2021/12/15 04:59:55;;;;;;;136.97;41.67;;;10.30;99.90;;;;;;5073353;28;20226;-81
2021/12/15 05:02:23;;;;;;;130.17;43.10;;;10.20;99.90;;;;;;5074498;28;20283;-80
2021/12/15 05:04:51;;;;;;;133.70;40.93;;;10.30;99.90;;;;;;5091887;28;20235;-79
2021/12/15 05:07:20;;;;;;;130.27;41.17;;;10.30;99.90;;;;;;5085634;28;20742;-81
2021/12/15 05:09:50;;;;;;;124.53;40.60;;;10.30;99.90;;;;;;5091194;28;20703;-79
2021/12/15 05:12:21;;;;;;;128.97;43.50;;;10.30;99.90;;;;;;5090851;28;20644;-81
2021/12/15 05:14:49;;;;;;;130.60;40.83;;;10.30;99.90;;;;;;5091100;28;20223;-79
2021/12/15 05:17:16;;;;;;;131.07;41.23;;;10.30;99.90;;;;;;5090688;28;20265;-79
2021/12/15 05:19:46;;;;;;;137.83;43.97;;;10.40;99.90;;;;;;5057023;28;20312;-80
2021/12/15 05:22:14;;;;;;;135.57;41.83;;;10.50;99.90;;;;;;5073622;28;20402;-81
2021/12/15 05:24:42;;;;;;;130.20;41.00;;;10.40;99.90;;;;;;5065493;28;20315;-80
2021/12/15 05:27:13;;;;;;;127.17;39.30;;;10.30;99.90;;;;;;5091331;28;20203;-80
2021/12/15 05:29:42;;;;;;;144.13;42.73;;;10.30;99.90;;;;;;5092047;28;20208;-81
2021/12/15 05:32:10;;;;;;;137.07;42.20;;;10.40;99.90;;;;;;5091618;28;20283;-81
2021/12/15 05:34:38;;;;;;;136.33;42.43;;;10.40;99.90;;;;;;5087197;28;20298;-80
2021/12/15 05:37:06;;;;;;;136.47;41.07;;;10.40;99.90;;;;;;5072348;28;20605;-80
2021/12/15 05:39:34;;;;;;;143.20;43.38;;;10.40;99.90;;;;;;5085218;28;21003;-81
2021/12/15 05:42:01;;;;;;;132.50;40.20;;;10.50;99.90;;;;;;5090282;28;20310;-82
2021/12/15 05:44:28;;;;;;;120.37;39.80;;;10.50;99.90;;;;;;5073645;28;20227;-80
2021/12/15 05:46:57;;;;;;;129.13;39.83;;;10.50;99.90;;;;;;5092342;28;20196;-80
2021/12/15 05:49:25;;;;;;;136.17;40.40;;;10.40;99.90;;;;;;5093061;28;20566;-80
2021/12/15 05:51:53;;;;;;;131.13;38.83;;;10.40;99.90;;;;;;5086039;28;20199;-81
2021/12/15 05:54:20;;;;;;;138.67;40.53;;;10.40;99.90;;;;;;5083994;28;20253;-80
2021/12/15 05:56:48;;;;;;;119.93;39.10;;;10.50;99.90;;;;;;5072599;28;20243;-80
2021/12/15 05:59:15;;;;;;;120.83;39.77;;;10.50;99.90;;;;;;5090743;28;20836;-81
2021/12/15 06:01:44;;;;;;;120.97;41.63;;;10.40;99.90;;;;;;5087210;28;21315;-80
2021/12/15 06:04:11;;;;;;;132.97;38.97;;;10.40;99.90;;;;;;5089707;28;20227;-80
2021/12/15 06:06:38;;;;;;;130.57;40.10;;;10.40;99.90;;;;;;5068727;28;20569;-80
2021/12/15 06:09:06;;;;;;;136.43;40.50;;;10.40;99.90;;;;;;5086786;28;20226;-80
2021/12/15 06:11:34;;;;;;;130.10;41.87;;;10.40;99.90;;;;;;5088772;28;20204;-80
2021/12/15 06:14:02;;;;;;;118.60;39.97;;;10.40;99.90;;;;;;5090129;28;20208;-81
2021/12/15 06:16:33;;;;;;;123.20;40.73;;;10.50;99.90;;;;;;5090337;28;20211;-81
2021/12/15 06:19:05;;;;;;;134.07;39.93;;;10.40;99.90;;;;;;5087419;28;20306;-81
2021/12/15 06:21:32;;;;;;;128.20;40.80;;;10.40;99.90;;;;;;5090255;28;20214;-80
2021/12/15 06:23:59;;;;;;;127.10;40.83;;;10.40;99.90;;;;;;5084539;28;20246;-80
2021/12/15 06:26:26;;;;;;;125.77;39.70;;;10.50;99.90;;;;;;5090177;28;20230;-79
2021/12/15 06:28:55;;;;;;;130.57;40.07;;;10.40;99.90;;;;;;5072718;28;20196;-81
2021/12/15 06:31:22;;;;;;;127.73;42.50;;;10.50;99.90;;;;;;5089343;28;20249;-80
2021/12/15 06:33:49;;;;;;;151.07;43.53;;;10.50;99.90;;;;;;5082135;28;20220;-81
2021/12/15 06:36:20;;;;;;;118.00;38.10;;;10.50;99.90;;;;;;5072057;28;20573;-80
2021/12/15 06:38:50;;;;;;;132.77;40.37;;;10.50;99.90;;;;;;5088539;28;20294;-81
2021/12/15 06:41:20;;;;;;;144.33;40.97;;;10.50;99.90;;;;;;5087922;28;20239;-81
2021/12/15 06:43:50;;;;;;;135.57;42.17;;;10.50;99.90;;;;;;5087436;28;20262;-80
2021/12/15 06:59:54;;;;;;;152.30;41.13;;;10.50;99.90;;;;;;5066349;28;20214;-81
2021/12/15 07:02:21;;;;;;;132.40;39.37;;;10.40;99.90;;;;;;5066515;28;20246;-81
2021/12/15 07:04:48;;;;;;;135.80;38.77;;;10.50;99.90;;;;;;5060673;28;20232;-80
2021/12/15 07:07:15;;;;;;;157.23;42.23;;;10.50;99.90;;;;;;5049424;28;20275;-80
2021/12/15 07:09:42;;;;;;;136.77;40.07;;;10.50;99.90;;;;;;5068488;28;20610;-81
2021/12/15 07:12:10;;;;;;;158.10;42.70;;;10.50;99.90;;;;;;5064641;28;20291;-82
2021/12/15 07:14:37;;;;;;;144.50;41.90;;;10.40;99.90;;;;;;5069047;28;20582;-81
2021/12/15 07:17:09;;;;;;;155.63;41.27;;;10.40;99.90;;;;;;5050795;28;20644;-80
2021/12/15 07:19:50;;;;;;;140.47;42.77;;;10.40;99.90;;;;;;5068046;28;20250;-80
2021/12/15 07:22:31;;;;;;;147.60;40.53;;;10.40;99.90;;;;;;5053566;28;20272;-81
2021/12/15 07:25:00;;;;;;;146.10;41.63;;;10.40;99.90;;;;;;5058728;28;20802;-81
2021/12/15 07:27:27;;;;;;;136.23;40.17;;;10.40;99.90;;;;;;5048927;28;20205;-81
2021/12/15 07:29:54;;;;;;;147.70;42.57;;;10.40;99.90;;;;;;5036664;28;20231;-81
2021/12/15 07:32:20;;;;;;;144.47;42.27;;;10.40;99.90;;;;;;5067607;28;20315;-81
2021/12/15 07:34:47;;;;;;;151.03;42.30;;;10.40;99.90;;;;;;5071579;28;20312;-80
2021/12/15 07:37:14;;;;;;;140.20;41.03;;;10.40;99.90;;;;;;5075038;28;20276;-80
2021/12/15 07:39:48;;;;;;;131.43;39.87;;;10.40;99.90;;;;;;5072116;28;20262;-80
2021/12/15 07:42:15;;;;;;;148.80;41.77;;;10.40;99.90;;;;;;5041992;28;20640;-82
2021/12/15 07:44:42;;;;;;;155.37;41.63;;;10.40;99.90;;;;;;5027191;28;20367;-81
2021/12/15 07:47:09;;;;;;;146.97;40.97;;;10.40;99.90;;;;;;5068045;28;20281;-81
2021/12/15 07:49:36;;;;;;;151.13;40.37;;;10.40;99.90;;;;;;5068773;28;20212;-82
2021/12/15 07:52:04;;;;;;;156.97;42.37;;;10.40;99.90;;;;;;5050375;28;20312;-81
2021/12/15 07:54:34;;;;;;;154.13;43.80;;;10.40;99.90;;;;;;5069384;28;20730;-82
2021/12/15 07:57:07;;;;;;;153.13;42.67;;;10.40;99.90;;;;;;5052387;28;20232;-82
2021/12/15 07:59:34;;;;;;;159.70;41.13;;;10.50;99.90;;;;;;5051101;28;20215;-82
2021/12/15 08:02:01;;;;;;;142.73;39.87;;;10.50;99.90;;;;;;5071287;28;20770;-80
2021/12/15 08:04:28;;;;;;;161.53;42.53;;;10.50;99.90;;;;;;5059498;28;20236;-80
2021/12/15 08:06:55;;;;;;;144.20;40.17;;;10.50;99.90;;;;;;5067483;28;20291;-80
2021/12/15 08:09:22;;;;;;;149.73;40.33;;;10.50;99.90;;;;;;5084339;28;20210;-81
2021/12/15 08:11:50;;;;;;;144.23;39.10;;;10.50;99.90;;;;;;5087891;28;20274;-81
2021/12/15 08:14:17;;;;;;;155.47;39.87;;;10.50;99.90;;;;;;5070892;28;20235;-80
2021/12/15 08:16:44;;;;;;;153.27;40.53;;;10.50;99.90;;;;;;5089391;28;20343;-81
2021/12/15 08:19:15;;;;;;;154.37;40.47;;;10.50;99.90;;;;;;5088946;28;20220;-81
2021/12/15 08:21:42;;;;;;;157.10;40.67;;;10.50;99.90;;;;;;5071032;28;20322;-80
2021/12/15 08:24:09;;;;;;;146.73;38.27;;;10.50;99.90;;;;;;5088239;28;20697;-79
2021/12/15 08:26:36;;;;;;;160.37;40.23;;;10.50;99.90;;;;;;5074031;28;20196;-81
2021/12/15 08:29:06;;;;;;;143.73;39.07;;;10.50;99.90;;;;;;5084832;28;20193;-81
2021/12/15 08:31:33;;;;;;;150.70;37.00;;;10.50;99.90;;;;;;5082627;28;20655;-80
2021/12/15 08:34:00;;;;;;;140.63;36.77;;;10.50;99.90;;;;;;5089020;28;20215;-81
2021/12/15 08:36:27;;;;;;;135.83;36.17;;;10.60;99.90;;;;;;5077043;28;20298;-79
2021/12/15 08:38:54;;;;;;;139.23;36.87;;;10.60;99.90;;;;;;5073368;28;20235;-79
2021/12/15 08:41:27;;;;;;;139.97;35.97;;;10.60;99.90;;;;;;5089890;28;20543;-81
2021/12/15 08:43:55;;;;;;;149.83;38.00;;;10.60;99.90;;;;;;5076517;28;20322;-81
2021/12/15 08:46:31;;;;;;;144.83;38.23;;;10.60;99.90;;;;;;5067849;28;20664;-81
2021/12/15 08:49:00;;;;;;;142.63;36.97;;;10.60;99.90;;;;;;5071204;28;20638;-80
2021/12/15 08:51:28;;;;;;;132.43;35.07;;;10.60;99.90;;;;;;5090473;28;20303;-81
2021/12/15 08:53:59;;;;;;;142.13;35.53;;;10.50;99.90;;;;;;5088490;28;20213;-79
2021/12/15 08:56:26;;;;;;;136.70;34.97;;;10.50;99.90;;;;;;5090978;28;20531;-81
2021/12/15 08:58:53;;;;;;;143.00;36.07;;;10.60;99.90;;;;;;5084837;28;20253;-82
2021/12/15 09:01:21;;;;;;;137.37;37.23;;;10.60;99.90;;;;;;5089335;28;20204;-81
2021/12/15 09:03:49;;;;;;;134.27;36.13;;;10.60;99.90;;;;;;5073512;28;20749;-81
2021/12/15 09:06:16;;;;;;;142.77;35.23;;;10.70;99.90;;;;;;5089711;28;20296;-82
2021/12/15 09:08:45;;;;;;;130.37;34.53;;;10.70;99.90;;;;;;5086413;28;20283;-81
2021/12/15 09:11:15;;;;;;;138.67;34.90;;;10.70;99.90;;;;;;5091098;28;20206;-82
2021/12/15 09:13:47;;;;;;;131.10;34.67;;;10.80;99.90;;;;;;5079838;28;20255;-81
2021/12/15 09:16:14;;;;;;;134.47;35.63;;;10.80;99.90;;;;;;5093474;28;20204;-80
2021/12/15 09:18:44;;;;;;;129.60;35.97;;;10.80;99.90;;;;;;5104433;28;20220;-80
2021/12/15 09:21:13;;;;;;;139.10;36.17;;;10.70;99.90;;;;;;5090655;28;20204;-80
2021/12/15 09:23:40;;;;;;;129.20;36.30;;;10.70;99.90;;;;;;5083557;28;20211;-80
2021/12/15 09:26:08;;;;;;;147.17;36.07;;;10.70;99.90;;;;;;5094065;28;20268;-81
2021/12/15 09:28:38;;;;;;;124.97;35.13;;;10.80;99.90;;;;;;5102600;28;20230;-80
2021/12/15 09:31:15;;;;;;;129.70;35.20;;;10.80;99.90;;;;;;5102916;28;20218;-79
2021/12/15 09:33:45;;;;;;;124.33;33.93;;;10.80;99.90;;;;;;5082146;28;20224;-79
2021/12/15 09:36:14;;;;;;;122.30;34.30;;;10.80;99.90;;;;;;5085307;28;20207;-81
2021/12/15 09:38:44;;;;;;;135.77;37.20;;;10.90;99.90;;;;;;5075187;28;20213;-81
2021/12/15 09:41:17;;;;;;;142.70;36.43;;;10.90;99.90;;;;;;5083311;28;20215;-80
2021/12/15 09:43:45;;;;;;;129.73;37.67;;;10.90;99.90;;;;;;5090892;28;20208;-82
2021/12/15 09:46:25;;;;;;;123.70;36.37;;;10.90;99.90;;;;;;5085264;28;20227;-81
2021/12/15 10:02:50;;;;;;;105.43;29.77;;;10.90;99.90;;;;;;5090884;28;20211;-81
2021/12/15 10:05:41;;;;;;;118.57;32.57;;;11.00;99.90;;;;;;5070795;28;20230;-82
2021/12/15 10:19:46;;;;;;;99.07;31.37;;;11.10;99.90;;;;;;5090651;28;20302;-80
2021/12/15 10:22:28;;;;;;;93.47;29.27;;;11.20;99.90;;;;;;5090887;28;20245;-82
2021/12/15 10:25:20;;;;;;;87.13;29.27;;;11.20;99.90;;;;;;5065802;28;20221;-81
2021/12/15 10:27:59;;;;;;;90.57;31.37;;;11.30;99.90;;;;;;5076603;28;20223;-80
2021/12/15 10:30:39;;;;;;;86.27;28.00;;;11.20;99.90;;;;;;5089710;28;20227;-81
2021/12/15 10:33:17;;;;;;;82.40;28.00;;;11.30;99.90;;;;;;5089499;28;20312;-81
2021/12/15 10:36:01;;;;;;;87.80;28.83;;;11.40;99.90;;;;;;5069409;28;20200;-79
2021/12/15 10:38:39;;;;;;;85.10;28.70;;;11.50;99.90;;;;;;5082612;28;20740;-81
2021/12/15 10:41:34;;;;;;;77.97;26.73;;;11.50;99.90;;;;;;5072640;28;20610;-82
2021/12/15 10:44:09;;;;;;;82.00;28.00;;;11.60;99.90;;;;;;5053349;28;20212;-80
2021/12/15 10:46:50;;;;;;;74.70;27.43;;;11.60;99.90;;;;;;5068444;28;20322;-80
2021/12/15 10:49:29;;;;;;;75.03;26.33;;;11.60;99.90;;;;;;5076416;28;20579;-81
2021/12/15 10:52:01;;;;;;;71.80;26.63;;;11.60;99.90;;;;;;5097344;28;20226;-83
2021/12/15 10:54:46;;;;;;;75.57;25.67;;;11.60;99.90;;;;;;5076997;28;20207;-81
2021/12/15 10:57:15;;;;;;;74.47;26.33;;;11.60;99.90;;;;;;5089625;28;20228;-83
2021/12/15 10:59:50;;;;;;;61.43;24.70;;;11.70;99.90;;;;;;5088865;28;20200;-82
2021/12/15 11:02:36;;;;;;;63.57;25.67;;;11.70;99.90;;;;;;5089610;28;20284;-82
2021/12/15 11:05:19;;;;;;;70.43;26.27;;;11.70;99.90;;;;;;5089385;28;20227;-81
2021/12/15 11:07:55;;;;;;;63.07;25.17;;;11.70;99.90;;;;;;5089873;28;20254;-81
2021/12/15 11:10:26;;;;;;;64.53;25.17;;;11.80;99.90;;;;;;5072491;28;20739;-81
2021/12/15 11:12:55;;;;;;;65.60;24.83;;;11.80;99.90;;;;;;5088204;28;20203;-81
2021/12/15 11:15:27;;;;;;;53.97;22.87;;;11.80;99.90;;;;;;5086938;28;20196;-82
2021/12/15 11:18:16;;;;;;;63.17;24.43;;;11.80;99.90;;;;;;5083765;28;20215;-82
2021/12/15 11:20:59;;;;;;;59.77;24.53;;;11.90;99.90;;;;;;5089654;28;20295;-81
2021/12/15 11:23:29;;;;;;;54.20;23.13;;;11.90;99.90;;;;;;5085662;28;20261;-82
2021/12/15 11:26:08;;;;;;;59.63;24.97;;;11.90;99.90;;;;;;5072204;28;20228;-82
2021/12/15 11:28:38;;;;;;;59.77;24.83;;;12.00;99.90;;;;;;5091053;28;20203;-80
2021/12/15 11:31:24;;;;;;;59.70;24.33;;;11.90;99.90;;;;;;5087192;28;20207;-81
2021/12/15 11:34:00;;;;;;;56.63;25.00;;;12.00;99.90;;;;;;5076426;28;20358;-80
2021/12/15 11:36:48;;;;;;;51.83;23.20;;;12.00;99.90;;;;;;5086746;28;20238;-82
2021/12/15 11:39:21;;;;;;;54.93;22.33;;;12.00;99.90;;;;;;5080594;28;20647;-81
2021/12/15 11:41:57;;;;;;;58.87;24.13;;;12.00;99.90;;;;;;5084490;28;20203;-82
2021/12/15 11:44:27;;;;;;;54.63;23.63;;;12.00;99.90;;;;;;5085906;28;20199;-81
2021/12/15 11:47:08;;;;;;;51.53;22.87;;;12.00;99.90;;;;;;5078069;28;20203;-80
2021/12/15 11:49:39;;;;;;;54.47;23.67;;;12.00;99.90;;;;;;5089950;28;20214;-81
2021/12/15 11:52:09;;;;;;;48.97;21.93;;;12.00;99.90;;;;;;5086677;28;20199;-81
2021/12/15 11:54:44;;;;;;;47.40;22.27;;;12.00;99.90;;;;;;5070000;28;20303;-81
2021/12/15 11:57:25;;;;;;;48.67;22.60;;;12.00;99.90;;;;;;5071498;28;20220;-80
2021/12/15 12:00:14;;;;;;;47.60;21.90;;;12.00;99.90;;;;;;5050474;28;20295;-80
2021/12/15 12:02:48;;;;;;;43.90;21.63;;;12.00;99.90;;;;;;5051074;28;20213;-82
2021/12/15 12:05:21;;;;;;;49.33;23.20;;;12.00;99.90;;;;;;5052924;28;20582;-81
2021/12/15 12:07:57;;;;;;;50.17;24.17;;;11.90;99.90;;;;;;5064338;28;20200;-81
2021/12/15 12:10:32;;;;;;;46.53;22.53;;;12.00;99.90;;;;;;5067644;28;20200;-81
2021/12/15 12:13:14;;;;;;;46.90;21.40;;;11.90;99.90;;;;;;5065967;28;20196;-82
2021/12/15 12:15:43;;;;;;;41.70;21.23;;;11.90;99.90;;;;;;5069794;28;20274;-80
2021/12/15 12:18:17;;;;;;;42.30;21.33;;;12.10;99.90;;;;;;5071177;28;20638;-81
2021/12/15 12:20:47;;;;;;;40.57;21.60;;;12.00;99.90;;;;;;5068391;28;20200;-82
2021/12/15 12:23:21;;;;;;;40.77;21.07;;;12.00;99.90;;;;;;5067793;28;20292;-82
2021/12/15 12:25:55;;;;;;;42.37;20.43;;;12.00;99.90;;;;;;5070332;28;20223;-80
2021/12/15 12:28:27;;;;;;;40.57;19.77;;;11.90;99.90;;;;;;5078881;28;20200;-80
2021/12/15 12:31:06;;;;;;;38.03;19.00;;;11.90;99.90;;;;;;5068204;28;20212;-80
2021/12/15 12:33:34;;;;;;;40.00;19.07;;;11.70;99.90;;;;;;5072631;28;20216;-80
2021/12/15 12:36:08;;;;;;;37.30;18.77;;;11.80;99.90;;;;;;5072248;28;20579;-81
2021/12/15 12:38:39;;;;;;;37.73;18.73;;;11.80;99.90;;;;;;5053038;28;20207;-80
2021/12/15 12:41:18;;;;;;;38.20;19.03;;;11.70;99.90;;;;;;5068888;28;20215;-81
2021/12/15 12:43:55;;;;;;;43.13;19.13;;;11.70;99.90;;;;;;5074500;28;20193;-80
2021/12/15 12:46:31;;;;;;;37.63;18.53;;;11.70;99.90;;;;;;5076003;28;20279;-79
2021/12/15 13:00:27;;;;;;;34.87;17.10;;;11.70;99.90;;;;;;5075713;28;20239;-79
2021/12/15 13:03:00;;;;;;;31.03;16.30;;;11.90;99.90;;;;;;5074656;28;20331;-80
2021/12/15 13:05:37;;;;;;;30.83;14.53;;;11.90;99.90;;;;;;5051353;28;20224;-79
2021/12/15 13:08:36;;;;;;;26.30;14.13;;;12.00;99.90;;;;;;5065350;28;20641;-80
2021/12/15 13:11:20;;;;;;;25.83;14.17;;;11.90;99.90;;;;;;5047425;28;20207;-80
2021/12/15 13:14:03;;;;;;;29.50;14.87;;;11.90;99.90;;;;;;5058166;28;20219;-82
2021/12/15 13:16:41;;;;;;;27.70;14.10;;;12.00;99.90;;;;;;5069984;28;20215;-80
2021/12/15 13:19:28;;;;;;;23.00;13.10;;;12.00;99.90;;;;;;5051666;28;20220;-81
2021/12/15 13:30:51;;;;;;;21.17;10.87;;;12.00;99.90;;;;;;5068928;28;20712;-80
2021/12/15 13:33:33;;;;;;;20.53;10.97;;;12.00;99.90;;;;;;5063348;28;20308;-81
2021/12/15 13:36:20;;;;;;;17.50;9.30;;;12.10;99.90;;;;;;5048376;28;20228;-80
2021/12/15 13:39:02;;;;;;;17.40;8.50;;;12.10;99.90;;;;;;5068159;28;20632;-79
2021/12/15 13:42:00;;;;;;;15.03;7.90;;;12.10;99.90;;;;;;5047432;28;20374;-80
2021/12/15 13:44:37;;;;;;;14.63;6.27;;;12.00;99.90;;;;;;5060635;28;20344;-80
2021/12/15 13:47:11;;;;;;;14.23;6.00;;;12.00;99.90;;;;;;5048446;28;20678;-79
2021/12/15 13:49:56;;;;;;;11.43;7.00;;;11.90;99.90;;;;;;5034386;28;20237;-81
2021/12/15 13:52:34;;;;;;;13.20;5.27;;;11.90;99.90;;;;;;5061694;28;20229;-78
2021/12/15 13:55:16;;;;;;;11.13;6.10;;;11.90;99.90;;;;;;5037195;28;20205;-79
2021/12/15 13:57:44;;;;;;;14.40;5.83;;;11.90;99.90;;;;;;5039620;28;20240;-80
2021/12/15 14:00:16;;;;;;;10.47;5.30;;;11.80;99.90;;;;;;5076812;28;20245;-82
2021/12/15 14:03:27;;;;;;;12.63;5.90;;;11.80;99.90;;;;;;5071959;28;20452;-81
2021/12/15 14:06:09;;;;;;;12.37;4.60;;;11.90;99.90;;;;;;4991466;28;20218;-81
2021/12/15 14:08:45;;;;;;;9.35;5.40;;;11.90;99.90;;;;;;5070243;28;20535;-80
2021/12/15 14:11:26;;;;;;;12.10;4.77;;;12.00;99.90;;;;;;5079181;28;20666;-80
2021/12/15 14:13:59;;;;;;;12.03;4.80;;;12.00;99.90;;;;;;5080937;28;20204;-81
2021/12/15 14:16:32;;;;;;;7.80;4.30;;;11.90;99.90;;;;;;5079209;28;20203;-81